Kingshill, Virgin Islands
Current Conditions -  °F | °C
As of 10:00 PM on Wednesday 17 Dec 2014 (Local Time) from TUPJ Reporting Station
Few Clouds Few Clouds  
Wind Chill: 25°   Ceiling: Unl
Heat Index: 26°   Visibility: 6mi
Dew Point: 20°   Wind: 6mph
Humidity: 74%   Direction: 50°NE
Pressure: 30.03"   Gusts: NA
Location:  17.72°N, 64.78°W
Report Text: TUPJ 180200Z 05005KT 9999 FEW022 25/20 Q1017 RMK A3005
Loading
Personal Weather Stations






























Interactive Weather Map New forecast layout! Learn more

10-Day Weather Forecast

Advertisements
Track Severe Weather on mobile